Aérodrome :
LOGIN :

S'inscrire | Disclaimer

   EN    FR    IT 

 










Légende :    VFR   VFR Marginal   IFR   IFR Intensif   IFR Très Intensif
Visi : 
Plafond : 
>= 8 km
>= 3000ft
5 à 8 km
1000 à 3000 ft
1500m à 5 km
500 à 1000 ft
800 à 1500m
200 à 500 ft
< 800m
< 200 ft
Symboles :   Orages  Brouillard  Fortes neiges  Fortes précipitations  Vent > 20 kt
SIGMETs :   Divers  Orages  Givrage  Turbulence  Onde Orograph.  Cendres Volcan.






- Altitude de l'aérodrome : 353 ft
- Code IATA : CND


LRCK - Constanta

DERNIER METAR :
  • 191600Z 02012KT 9999 SCT015 OVC029 01/M01 Q1029 NOSIG

METARs EXPIRÉS :
  • 191530Z 02013KT 9999 OVC035 01/M00 Q1029 NOSIG
  • 191500Z 01014KT 9999 FEW015 OVC037 02/M00 Q1028 NOSIG
  • 191430Z 01014KT 9999 -RA OVC034 02/00 Q1028 NOSIG
  • 191400Z 01013KT 9999 SCT014 OVC036 02/00 Q1028 NOSIG
  • 191330Z 36015KT 9999 OVC037 02/01 Q1027 NOSIG

TAF TAF LRCK
Valide du 19 à 12h jusqu'au 20 à 12h UTC


191100Z 1912/2012 36012KT 9999 OVC030
PROB40
TEMPO 1912/1918 5000 -RA BR
TEMPO 2002/2006 3000 BR BKN010



MET'MAP, la Météo Aéronautique d'un coup d'oeil ! - Copyright ORBIFLY Décembre 2007 - Disclaimer

ORBIFLY MET'MAP TEAM :

Programmation & Développement : Alexandra Zaïnal
Sur une idée originale de : Baudouin d'Aumeries
Assistance à la programmation : Marc-Olivier Méhu
Soutien technique & logistique : Manuel Goepfert

Contact : metmap@orbifly.com




SOURCES & CREDITS :

   NOAA